createdAt,value
2023-02-23T00:01:29.972Z,15.20
2023-02-23T00:04:07.399Z,14.10
2023-02-23T00:06:44.318Z,14.30
2023-02-23T00:12:22.790Z,14.10
2023-02-23T00:14:58.441Z,14.40
2023-02-23T00:18:05.847Z,13.70
2023-02-23T00:20:47.515Z,14.00
2023-02-23T00:23:49.666Z,14.10
2023-02-23T00:26:26.632Z,13.40
2023-02-23T00:32:24.385Z,13.10
2023-02-23T00:35:46.289Z,12.90
2023-02-23T00:39:20.101Z,13.70
2023-02-23T00:41:55.940Z,14.20
2023-02-23T00:44:56.057Z,14.00
2023-02-23T00:47:30.975Z,13.30
2023-02-23T00:50:55.970Z,13.60
2023-02-23T00:53:30.391Z,12.80
2023-02-23T00:56:29.850Z,12.80
2023-02-23T00:59:31.513Z,12.50
2023-02-23T01:02:36.183Z,12.30
2023-02-23T01:05:14.747Z,12.70
2023-02-23T01:07:51.418Z,13.10
2023-02-23T01:11:13.992Z,13.40
2023-02-23T01:14:12.273Z,14.00
2023-02-23T01:16:49.127Z,13.40
2023-02-23T01:19:24.787Z,13.30
2023-02-23T01:21:56.732Z,13.20
2023-02-23T01:24:30.589Z,13.40
2023-02-23T01:27:07.196Z,13.60
2023-02-23T01:30:10.280Z,12.80
2023-02-23T01:32:43.528Z,12.50
2023-02-23T01:35:20.535Z,12.50
2023-02-23T01:37:59.816Z,12.00
2023-02-23T01:40:36.741Z,12.30
2023-02-23T01:43:42.673Z,12.70
2023-02-23T01:46:15.872Z,12.60
2023-02-23T01:48:51.290Z,12.60
2023-02-23T01:51:54.915Z,13.00
2023-02-23T01:55:00.775Z,12.90
2023-02-23T01:57:36.860Z,13.50
2023-02-23T02:00:15.074Z,12.80
2023-02-23T02:03:48.349Z,13.00
2023-02-23T02:06:23.448Z,13.40
2023-02-23T02:09:04.508Z,13.50
2023-02-23T02:11:47.963Z,12.80
2023-02-23T02:14:51.074Z,13.10
2023-02-23T02:17:59.832Z,13.90
2023-02-23T02:25:01.159Z,13.30
2023-02-23T02:28:30.001Z,14.00
2023-02-23T02:32:18.491Z,14.20
2023-02-23T02:35:56.983Z,13.90
2023-02-23T02:38:43.947Z,14.00
2023-02-23T02:41:45.565Z,14.30
2023-02-23T02:44:51.921Z,14.30
2023-02-23T02:47:31.120Z,14.40
2023-02-23T02:53:13.532Z,14.50
2023-02-23T02:58:46.568Z,15.20
2023-02-23T03:09:34.730Z,15.50
2023-02-23T03:12:54.458Z,15.60
2023-02-23T03:16:07.960Z,15.30
2023-02-23T03:19:18.136Z,15.90
2023-02-23T03:22:36.123Z,17.10
2023-02-23T03:25:54.129Z,16.50
2023-02-23T03:29:24.141Z,17.20
2023-02-23T03:32:34.114Z,16.20
2023-02-23T03:35:35.789Z,17.40
2023-02-23T03:39:16.768Z,16.90
2023-02-23T03:42:19.858Z,17.70
2023-02-23T03:45:18.247Z,17.80
2023-02-23T03:48:41.602Z,16.80
2023-02-23T03:51:35.968Z,17.00
2023-02-23T03:55:16.010Z,17.40
2023-02-23T03:58:16.796Z,18.20
2023-02-23T04:01:42.754Z,18.20
2023-02-23T04:08:40.745Z,18.20
2023-02-23T04:12:17.829Z,17.90
2023-02-23T04:15:04.083Z,18.40
2023-02-23T04:17:45.917Z,20.20
2023-02-23T04:20:26.074Z,20.80
2023-02-23T04:23:00.614Z,21.40
2023-02-23T04:25:39.311Z,21.60
2023-02-23T04:28:13.483Z,22.90
2023-02-23T04:30:45.552Z,23.40
2023-02-23T04:33:20.323Z,24.30
2023-02-23T04:36:43.046Z,23.10
2023-02-23T04:39:20.716Z,25.20
2023-02-23T04:41:57.626Z,28.70
2023-02-23T04:44:59.144Z,25.70
2023-02-23T04:47:33.061Z,25.30
2023-02-23T04:50:53.645Z,24.60
2023-02-23T04:53:30.311Z,29.50
2023-02-23T04:56:05.366Z,30.40
2023-02-23T04:58:40.813Z,25.70
2023-02-23T05:01:17.080Z,26.60
2023-02-23T05:04:41.769Z,29.30
2023-02-23T05:07:14.464Z,25.20
2023-02-23T05:09:54.182Z,25.00
2023-02-23T05:13:18.268Z,24.80
2023-02-23T05:15:53.010Z,23.80
2023-02-23T05:18:27.512Z,22.80
2023-02-23T05:21:30.209Z,21.90
2023-02-23T05:24:28.117Z,22.80
2023-02-23T05:27:06.567Z,22.60
2023-02-23T05:29:39.237Z,23.30
2023-02-23T05:32:13.595Z,24.20
2023-02-23T05:34:48.621Z,26.80
2023-02-23T05:37:24.055Z,30.50
2023-02-23T05:40:22.462Z,36.50
2023-02-23T05:42:54.352Z,53.40
2023-02-23T05:45:29.053Z,80.10
2023-02-23T05:48:31.491Z,73.40
2023-02-23T05:51:32.602Z,57.70
2023-02-23T05:54:09.377Z,48.00
2023-02-23T05:57:30.998Z,40.20
2023-02-23T06:00:09.097Z,38.40
2023-02-23T06:03:09.847Z,36.10
2023-02-23T06:05:44.114Z,30.30
2023-02-23T06:09:05.606Z,29.70
2023-02-23T06:11:39.992Z,26.80
2023-02-23T06:14:18.022Z,25.00
2023-02-23T06:17:40.800Z,25.30
2023-02-23T06:20:20.126Z,25.70
2023-02-23T06:22:56.248Z,28.10
2023-02-23T06:25:29.887Z,31.20
2023-02-23T06:28:04.209Z,30.20
2023-02-23T06:30:39.041Z,27.00
2023-02-23T06:33:14.603Z,26.50
2023-02-23T06:35:57.509Z,24.80
2023-02-23T06:38:33.788Z,24.20
2023-02-23T06:41:36.554Z,24.80
2023-02-23T06:44:17.280Z,26.30
2023-02-23T06:46:53.613Z,36.40
2023-02-23T06:52:49.972Z,44.50
2023-02-23T06:55:23.367Z,43.40
2023-02-23T06:57:58.300Z,34.20
2023-02-23T07:00:59.792Z,37.20
2023-02-23T07:03:36.724Z,38.70
2023-02-23T07:06:16.354Z,56.20
2023-02-23T07:08:50.838Z,42.30
2023-02-23T07:11:52.742Z,41.00
2023-02-23T07:14:27.674Z,40.50
2023-02-23T07:17:00.230Z,37.20
2023-02-23T07:19:33.793Z,35.30
2023-02-23T07:22:18.464Z,35.00
2023-02-23T07:28:18.466Z,38.80
2023-02-23T07:31:16.405Z,31.30
2023-02-23T07:33:55.123Z,30.90
2023-02-23T07:36:29.354Z,40.30
2023-02-23T07:39:29.361Z,42.60
2023-02-23T07:42:07.983Z,34.40
2023-02-23T07:44:41.261Z,26.90
2023-02-23T07:47:19.616Z,30.20
2023-02-23T07:49:56.128Z,38.60
2023-02-23T07:53:16.832Z,29.60
2023-02-23T07:55:50.491Z,34.00
2023-02-23T07:58:25.275Z,26.40
2023-02-23T08:01:03.911Z,29.30
2023-02-23T08:04:23.719Z,27.90
2023-02-23T08:07:23.508Z,24.40
2023-02-23T08:09:59.916Z,22.80
2023-02-23T08:12:37.826Z,26.70
2023-02-23T08:15:13.104Z,29.00
2023-02-23T08:18:10.560Z,26.50
2023-02-23T08:20:45.003Z,24.10
2023-02-23T08:23:47.222Z,29.20
2023-02-23T08:26:21.106Z,35.30
2023-02-23T08:29:24.200Z,32.70
2023-02-23T08:31:58.362Z,33.80
2023-02-23T08:34:55.612Z,35.30
2023-02-23T08:37:32.619Z,25.70
2023-02-23T08:40:32.248Z,25.50
2023-02-23T08:43:11.363Z,32.20
2023-02-23T08:45:45.658Z,41.40
2023-02-23T08:48:44.323Z,44.30
2023-02-23T08:51:21.460Z,36.40
2023-02-23T08:53:53.551Z,34.70
2023-02-23T08:56:27.628Z,48.30
2023-02-23T08:59:00.800Z,34.80
2023-02-23T09:01:38.867Z,31.50
2023-02-23T09:04:12.267Z,34.90
2023-02-23T09:06:46.994Z,24.30
2023-02-23T09:09:20.931Z,29.60
2023-02-23T09:11:55.365Z,34.90
2023-02-23T09:14:32.507Z,42.10
2023-02-23T09:17:34.566Z,25.00
2023-02-23T09:20:13.591Z,29.30
2023-02-23T09:22:49.865Z,25.70
2023-02-23T09:25:24.182Z,30.60
2023-02-23T09:27:59.678Z,25.10
2023-02-23T09:30:34.910Z,27.20
2023-02-23T09:33:09.070Z,29.70
2023-02-23T09:35:43.638Z,32.40
2023-02-23T09:38:15.741Z,28.30
2023-02-23T09:40:56.982Z,32.40
2023-02-23T09:43:35.301Z,22.70
2023-02-23T09:46:58.745Z,29.30
2023-02-23T09:50:01.270Z,21.40
2023-02-23T09:52:42.468Z,21.60
2023-02-23T09:59:02.964Z,21.80
2023-02-23T10:02:00.332Z,22.10
2023-02-23T10:04:42.557Z,21.80
2023-02-23T10:10:53.296Z,23.10
2023-02-23T10:13:57.316Z,22.40
2023-02-23T10:16:39.033Z,22.30
2023-02-23T10:19:20.934Z,22.50
2023-02-23T10:22:02.025Z,22.50
2023-02-23T10:24:38.253Z,21.30
2023-02-23T10:33:50.597Z,20.70
2023-02-23T10:36:37.648Z,22.60
2023-02-23T10:39:34.678Z,18.30
2023-02-23T10:42:57.137Z,19.00
2023-02-23T10:45:32.582Z,19.60
2023-02-23T10:48:10.465Z,18.20
2023-02-23T10:50:45.767Z,43.20
2023-02-23T10:53:24.228Z,20.40
2023-02-23T10:56:10.773Z,21.80
2023-02-23T10:58:51.240Z,30.90
2023-02-23T11:02:01.045Z,20.20
2023-02-23T11:04:39.929Z,17.20
2023-02-23T11:07:20.320Z,16.20
2023-02-23T11:09:53.531Z,18.20
2023-02-23T11:12:39.318Z,26.10
2023-02-23T11:15:46.368Z,19.50
2023-02-23T11:18:27.334Z,17.30
2023-02-23T11:24:32.253Z,18.60
2023-02-23T11:30:13.679Z,21.10
2023-02-23T11:33:12.707Z,18.30
2023-02-23T11:36:11.560Z,16.80
2023-02-23T11:38:49.709Z,16.70
2023-02-23T11:42:10.531Z,16.40
2023-02-23T11:44:47.692Z,16.60
2023-02-23T11:47:24.237Z,17.30
2023-02-23T11:49:59.599Z,15.50
2023-02-23T11:52:37.962Z,15.50
2023-02-23T11:55:20.608Z,15.20
2023-02-23T11:58:03.036Z,14.80
2023-02-23T12:00:38.213Z,14.70
2023-02-23T12:03:26.445Z,14.30
2023-02-23T12:06:04.883Z,15.90
2023-02-23T12:09:07.560Z,14.60
2023-02-23T12:15:39.564Z,14.40
2023-02-23T12:18:20.871Z,15.50
2023-02-23T12:21:26.298Z,15.10
2023-02-23T12:24:26.346Z,16.40
2023-02-23T12:27:49.973Z,15.30
2023-02-23T12:36:57.554Z,15.90
2023-02-23T12:39:33.336Z,15.00
2023-02-23T12:42:57.566Z,15.00
2023-02-23T12:49:06.696Z,15.80
2023-02-23T12:51:45.115Z,13.80
2023-02-23T12:54:24.173Z,15.50
2023-02-23T12:57:27.982Z,14.70
2023-02-23T13:00:35.290Z,15.20
2023-02-23T13:03:52.316Z,16.90
2023-02-23T13:06:40.778Z,15.40
2023-02-23T13:09:49.077Z,17.10
2023-02-23T13:12:38.235Z,16.80
2023-02-23T13:15:40.845Z,15.40
2023-02-23T13:21:45.460Z,22.20
2023-02-23T13:24:41.936Z,17.20
2023-02-23T13:27:25.103Z,18.50
2023-02-23T13:30:00.961Z,16.50
2023-02-23T13:32:39.465Z,16.70
2023-02-23T13:35:41.504Z,17.00
2023-02-23T13:38:27.140Z,23.90
2023-02-23T13:41:10.250Z,21.90
2023-02-23T13:47:27.904Z,25.70
2023-02-23T13:50:31.714Z,39.00
2023-02-23T13:53:09.319Z,22.70
2023-02-23T13:55:55.051Z,33.10
2023-02-23T13:59:21.067Z,37.00
2023-02-23T14:01:55.168Z,20.70
2023-02-23T14:04:52.993Z,33.30
2023-02-23T14:07:56.710Z,28.30
2023-02-23T14:10:37.512Z,30.80
2023-02-23T14:13:57.675Z,22.90
2023-02-23T14:16:37.705Z,18.60
2023-02-23T14:19:39.974Z,18.80
2023-02-23T14:22:18.590Z,15.70
2023-02-23T14:25:36.988Z,18.70
2023-02-23T14:32:07.597Z,16.00
2023-02-23T14:35:37.182Z,16.50
2023-02-23T14:38:48.002Z,17.80
2023-02-23T14:41:52.035Z,15.20
2023-02-23T14:44:31.161Z,18.40
2023-02-23T14:47:30.353Z,17.10
2023-02-23T14:50:05.060Z,17.20
2023-02-23T14:52:45.505Z,18.50
2023-02-23T14:55:29.574Z,19.10
2023-02-23T15:02:00.734Z,15.90
2023-02-23T15:04:38.654Z,19.60
2023-02-23T15:08:03.591Z,17.80
2023-02-23T15:10:44.360Z,17.40
2023-02-23T15:13:45.113Z,19.00
2023-02-23T15:16:45.257Z,19.60
2023-02-23T15:19:26.034Z,18.40
2023-02-23T15:22:47.655Z,19.80
2023-02-23T15:25:31.224Z,19.40
2023-02-23T15:28:21.713Z,22.00
2023-02-23T15:30:58.119Z,24.70
2023-02-23T15:34:00.097Z,22.20
2023-02-23T15:37:01.398Z,24.00
2023-02-23T15:40:00.364Z,25.70
2023-02-23T15:43:00.728Z,27.70
2023-02-23T15:46:01.614Z,30.20
2023-02-23T15:48:48.562Z,40.10
2023-02-23T15:51:35.761Z,35.40
2023-02-23T16:01:28.245Z,32.80
2023-02-23T16:04:09.410Z,37.50
2023-02-23T16:07:20.280Z,34.60
2023-02-23T16:09:56.254Z,43.60
2023-02-23T16:16:02.025Z,41.40
2023-02-23T16:18:44.877Z,39.60
2023-02-23T16:21:22.632Z,38.40
2023-02-23T16:23:59.197Z,33.30
2023-02-23T16:26:38.221Z,32.20
2023-02-23T16:29:46.766Z,29.90
2023-02-23T16:32:26.776Z,29.50
2023-02-23T16:35:52.131Z,33.10
2023-02-23T16:38:29.758Z,36.80
2023-02-23T16:41:07.727Z,33.90
2023-02-23T16:43:45.988Z,32.10
2023-02-23T16:46:19.653Z,31.20
2023-02-23T16:49:17.288Z,33.10
2023-02-23T16:51:51.425Z,36.20
2023-02-23T16:54:23.779Z,33.30
2023-02-23T16:56:59.678Z,40.90
2023-02-23T16:59:36.611Z,37.50
2023-02-23T17:02:18.043Z,34.10
2023-02-23T17:04:52.832Z,32.90
2023-02-23T17:07:34.755Z,37.80
2023-02-23T17:10:14.676Z,35.50
2023-02-23T17:13:18.382Z,38.70
2023-02-23T17:15:53.918Z,42.70
2023-02-23T17:19:18.122Z,41.40
2023-02-23T17:22:19.197Z,41.50
2023-02-23T17:24:59.821Z,41.70
2023-02-23T17:28:23.510Z,41.90
2023-02-23T17:30:59.093Z,37.70
2023-02-23T17:33:34.813Z,37.00
2023-02-23T17:36:11.534Z,37.30
2023-02-23T17:38:48.899Z,38.40
2023-02-23T17:41:26.933Z,38.90
2023-02-23T17:53:27.716Z,42.00
2023-02-23T17:56:00.640Z,42.80
2023-02-23T17:58:38.536Z,41.50
2023-02-23T18:01:12.664Z,42.50
2023-02-23T18:03:49.213Z,35.70
2023-02-23T18:06:48.729Z,37.00
2023-02-23T18:09:22.570Z,41.10
2023-02-23T18:12:22.496Z,39.00
2023-02-23T18:15:25.072Z,37.40
2023-02-23T18:18:26.824Z,37.30
2023-02-23T18:21:08.349Z,38.30
2023-02-23T18:23:43.300Z,41.10
2023-02-23T18:26:17.954Z,39.90
2023-02-23T18:28:52.191Z,35.10
2023-02-23T18:32:22.426Z,35.90
2023-02-23T18:35:02.022Z,34.20
2023-02-23T18:37:41.027Z,55.30
2023-02-23T18:40:21.628Z,39.60
2023-02-23T18:43:21.865Z,48.40
2023-02-23T18:52:43.140Z,48.50
2023-02-23T18:56:04.133Z,46.90
2023-02-23T18:58:43.406Z,45.40
2023-02-23T19:01:41.579Z,45.40
2023-02-23T19:07:22.294Z,45.10
2023-02-23T19:10:30.042Z,44.20
2023-02-23T19:13:09.333Z,46.80
2023-02-23T19:15:43.793Z,52.40
2023-02-23T19:18:24.047Z,47.90
2023-02-23T19:21:01.060Z,63.20
2023-02-23T19:23:37.494Z,48.90
2023-02-23T19:27:24.015Z,50.10
2023-02-23T19:30:25.118Z,48.00
2023-02-23T19:33:01.261Z,48.20
2023-02-23T19:35:35.512Z,48.50
2023-02-23T19:38:16.159Z,49.90
2023-02-23T19:40:49.801Z,52.00
2023-02-23T19:43:24.059Z,52.00
2023-02-23T19:49:04.604Z,51.90
2023-02-23T19:51:39.333Z,50.20
2023-02-23T19:54:12.160Z,52.30
2023-02-23T19:57:11.559Z,51.10
2023-02-23T19:59:44.752Z,52.40
2023-02-23T20:02:20.431Z,57.70
2023-02-23T20:05:01.800Z,62.70
2023-02-23T20:07:37.181Z,59.00
2023-02-23T20:10:16.506Z,70.80
2023-02-23T20:13:14.834Z,64.40
2023-02-23T20:19:15.364Z,66.90
2023-02-23T20:21:51.726Z,56.10
2023-02-23T20:24:27.658Z,50.70
2023-02-23T20:27:53.197Z,59.20
2023-02-23T20:30:55.853Z,57.60
2023-02-23T20:33:30.493Z,54.10
2023-02-23T20:39:12.526Z,49.60
2023-02-23T20:41:48.190Z,41.00
2023-02-23T20:44:26.247Z,41.80
2023-02-23T20:47:00.985Z,39.70
2023-02-23T20:49:35.329Z,39.90
2023-02-23T20:52:12.587Z,50.30
2023-02-23T20:58:15.126Z,38.70
2023-02-23T21:00:50.838Z,36.30
2023-02-23T21:04:13.171Z,39.50
2023-02-23T21:07:37.418Z,38.10
2023-02-23T21:11:03.755Z,38.90
2023-02-23T21:13:41.095Z,43.20
2023-02-23T21:16:19.497Z,38.50
2023-02-23T21:19:46.837Z,37.90
2023-02-23T21:22:44.828Z,35.30
2023-02-23T21:25:20.657Z,33.40
2023-02-23T21:27:55.214Z,32.00
2023-02-23T21:30:55.044Z,33.60
2023-02-23T21:33:29.615Z,32.80
2023-02-23T21:36:06.221Z,33.70
2023-02-23T21:38:38.702Z,31.80
2023-02-23T21:41:15.557Z,34.50
2023-02-23T21:43:55.110Z,32.70
2023-02-23T21:46:52.910Z,33.00
2023-02-23T21:49:50.520Z,29.80
2023-02-23T21:55:27.913Z,30.10
2023-02-23T21:58:01.279Z,29.60
2023-02-23T22:00:35.885Z,29.10
2023-02-23T22:03:12.906Z,27.70
2023-02-23T22:05:47.749Z,30.50
2023-02-23T22:08:47.688Z,29.50
2023-02-23T22:11:48.988Z,29.20
2023-02-23T22:14:50.912Z,29.70
2023-02-23T22:18:11.756Z,29.40
2023-02-23T22:21:09.904Z,30.90
2023-02-23T22:23:47.050Z,31.00
2023-02-23T22:26:54.256Z,32.70
2023-02-23T22:29:54.379Z,32.20
2023-02-23T22:32:35.125Z,29.60
2023-02-23T22:35:33.945Z,30.20
2023-02-23T22:38:31.614Z,29.60
2023-02-23T22:41:07.411Z,29.00
2023-02-23T22:44:32.782Z,29.60
2023-02-23T22:47:08.146Z,30.50
2023-02-23T22:53:04.969Z,35.50
2023-02-23T22:55:49.155Z,35.80
2023-02-23T22:58:24.746Z,30.90
2023-02-23T23:01:05.382Z,32.30
2023-02-23T23:03:49.118Z,32.70
2023-02-23T23:06:49.445Z,32.80
2023-02-23T23:09:28.066Z,31.70
2023-02-23T23:12:53.076Z,31.30
2023-02-23T23:18:34.699Z,31.90
2023-02-23T23:21:16.071Z,32.60
2023-02-23T23:23:50.523Z,31.40
2023-02-23T23:26:28.772Z,30.60
2023-02-23T23:29:33.418Z,31.80
2023-02-23T23:32:13.148Z,32.10
2023-02-23T23:34:51.961Z,32.80
2023-02-23T23:37:50.570Z,34.70
2023-02-23T23:40:25.675Z,35.70
2023-02-23T23:43:04.422Z,37.40
2023-02-23T23:49:06.582Z,35.10
2023-02-23T23:52:08.883Z,35.60
2023-02-23T23:54:47.499Z,34.30
2023-02-23T23:57:21.956Z,33.80
2023-02-23T23:59:59.642Z,33.40
